Teslin, Canada
Current Conditions -  °F | °C
As of 3:00 PM on Saturday 25 Oct 2014 (Local Time) from CYXY Reporting Station
Broken Clouds Broken Clouds  
Wind Chill: 24°   Ceiling: 8000
Heat Index: 30°   Visibility: 40mi
Dew Point: 25°   Wind: 6mph
Humidity: 80%   Direction: 350°N
Pressure: 29.76"   Gusts: NA
Location:  60.17°N, 132.72°W
Report Text: CYXY 252200Z 35005KT 40SM SCT012 BKN080 BKN120 M01/M04 A2976 RMK SF4AC2AC1 SLP118
Loading
Personal Weather Stations






























Interactive Weather Map
Tropical Storm Tracking
New forecast layout! Learn more

10-Day Weather Forecast

Advertisements
Track Severe Weather on mobile